Aeroporto :
LOGIN :

Iscrizione | Disclaimer

   EN    FR    IT 

 










Sommario :    VFR   VFR Marginale   IFR   IFR Intensivo   IFR Molto Intensivo
Visibilità : 
Base nubi : 
>= 8 km
>= 3000ft
5 / 8 km
1000 / 3000 ft
1500m / 5 km
500 / 1000 ft
800 / 1500m
200 / 500 ft
< 800m
< 200 ft
Simboli :   Temporali  Nebbia  Neve Forte  Precipitazioni Forti  Vento > 20 kt
SIGMETs :   Varie  Temporali  Ghiacco  Turbolenza  Onda orograficha  Ceneri Vulcaniche






- Altitudine del aeroporto : 640 ft
- Codice IATA : AOC


EDAC - Altenburg-Nobitz

ULTIMO METAR :
  • 090750Z 25004KT 210V280 CAVOK 12/04 Q1023

METARs OBSOLETI :
  • 090720Z 24004KT CAVOK 11/04 Q1023
  • 090650Z 25003KT CAVOK 10/03 Q1023
  • 090620Z VRB02KT CAVOK 07/05 Q1022
  • 090550Z AUTO 18002KT 9999 // NCD 06/03 Q1022
  • 090520Z AUTO 15002KT 9999 // NCD 04/01 Q1022

TAF TAF EDAC
Valido dal 09 a 08 ore il 09 a 15 ore UTC


090715Z 0908/0915 25005KT CAVOK
BECMG 0909/0912 33007KT



MetMap, La meteo Aeronautica in un colpo d'occhio ! - Copyright ORBIFLY Dicembre 2007 - Disclaimer

ORBIFLY MET'MAP TEAM :

Programmazione e sviluppo : Alexandra Zaïnal
Concezione : Baudouin d'Aumeries
Aiuto per la programmazione : Marc-Olivier Méhu
Supporto tecnico e logistico : Manuel Goepfert
Aiuto per la traduzione : Arnaldo La Scala

Contatto : metmap@orbifly.com




FONTI E CREDITI :

   NOAA